sensor_id;sensor_type;location;lat;lon;timestamp;temperature;humidity
19110;DHT22;9687;50.836;12.060;2022-10-31T00:00:45;18.30;71.20
19110;DHT22;9687;50.836;12.060;2022-10-31T00:03:13;18.30;70.70
19110;DHT22;9687;50.836;12.060;2022-10-31T00:05:42;18.30;71.30
19110;DHT22;9687;50.836;12.060;2022-10-31T00:08:10;18.30;71.40
19110;DHT22;9687;50.836;12.060;2022-10-31T00:10:39;18.30;71.50
19110;DHT22;9687;50.836;12.060;2022-10-31T00:13:08;18.30;71.50
19110;DHT22;9687;50.836;12.060;2022-10-31T00:15:37;18.20;71.50
19110;DHT22;9687;50.836;12.060;2022-10-31T00:18:06;18.20;71.60
19110;DHT22;9687;50.836;12.060;2022-10-31T00:20:34;18.20;71.60
19110;DHT22;9687;50.836;12.060;2022-10-31T00:23:02;18.20;71.60
19110;DHT22;9687;50.836;12.060;2022-10-31T00:25:36;18.10;71.60
19110;DHT22;9687;50.836;12.060;2022-10-31T00:28:06;18.10;71.00
19110;DHT22;9687;50.836;12.060;2022-10-31T00:30:34;18.00;71.50
19110;DHT22;9687;50.836;12.060;2022-10-31T00:33:03;18.00;71.60
19110;DHT22;9687;50.836;12.060;2022-10-31T00:35:31;17.90;71.70
19110;DHT22;9687;50.836;12.060;2022-10-31T00:37:59;17.90;72.00
19110;DHT22;9687;50.836;12.060;2022-10-31T00:40:26;17.80;72.30
19110;DHT22;9687;50.836;12.060;2022-10-31T00:42:54;17.80;72.40
19110;DHT22;9687;50.836;12.060;2022-10-31T00:45:23;17.80;72.40
19110;DHT22;9687;50.836;12.060;2022-10-31T00:47:50;17.70;72.30
19110;DHT22;9687;50.836;12.060;2022-10-31T00:50:19;17.70;72.30
19110;DHT22;9687;50.836;12.060;2022-10-31T00:52:49;17.60;72.40
19110;DHT22;9687;50.836;12.060;2022-10-31T00:55:16;17.50;72.30
19110;DHT22;9687;50.836;12.060;2022-10-31T00:57:46;17.50;72.30
19110;DHT22;9687;50.836;12.060;2022-10-31T01:00:14;17.40;72.50
19110;DHT22;9687;50.836;12.060;2022-10-31T01:02:43;17.30;72.70
19110;DHT22;9687;50.836;12.060;2022-10-31T01:05:10;17.30;73.00
19110;DHT22;9687;50.836;12.060;2022-10-31T01:07:39;17.30;73.00
19110;DHT22;9687;50.836;12.060;2022-10-31T01:10:08;17.30;73.00
19110;DHT22;9687;50.836;12.060;2022-10-31T01:12:36;17.20;72.90
19110;DHT22;9687;50.836;12.060;2022-10-31T01:15:05;17.20;73.30
19110;DHT22;9687;50.836;12.060;2022-10-31T01:17:33;17.10;73.00
19110;DHT22;9687;50.836;12.060;2022-10-31T01:20:03;17.20;74.30
19110;DHT22;9687;50.836;12.060;2022-10-31T01:22:31;17.10;73.80
19110;DHT22;9687;50.836;12.060;2022-10-31T01:24:58;17.10;74.10
19110;DHT22;9687;50.836;12.060;2022-10-31T01:27:27;17.00;74.20
19110;DHT22;9687;50.836;12.060;2022-10-31T01:29:54;17.00;74.40
19110;DHT22;9687;50.836;12.060;2022-10-31T01:32:22;17.00;74.40
19110;DHT22;9687;50.836;12.060;2022-10-31T01:34:50;16.90;74.40
19110;DHT22;9687;50.836;12.060;2022-10-31T01:37:18;16.90;74.50
19110;DHT22;9687;50.836;12.060;2022-10-31T01:39:48;16.90;74.40
19110;DHT22;9687;50.836;12.060;2022-10-31T01:42:19;16.90;74.30
19110;DHT22;9687;50.836;12.060;2022-10-31T01:44:51;16.80;74.30
19110;DHT22;9687;50.836;12.060;2022-10-31T01:47:25;16.70;74.90
19110;DHT22;9687;50.836;12.060;2022-10-31T01:49:57;16.70;75.20
19110;DHT22;9687;50.836;12.060;2022-10-31T01:52:31;16.70;75.30
19110;DHT22;9687;50.836;12.060;2022-10-31T01:55:03;16.70;76.20
19110;DHT22;9687;50.836;12.060;2022-10-31T01:57:32;16.70;75.30
19110;DHT22;9687;50.836;12.060;2022-10-31T02:00:03;16.70;75.10
19110;DHT22;9687;50.836;12.060;2022-10-31T02:02:32;16.70;75.00
19110;DHT22;9687;50.836;12.060;2022-10-31T02:05:00;16.70;75.00
19110;DHT22;9687;50.836;12.060;2022-10-31T02:07:36;16.60;74.90
19110;DHT22;9687;50.836;12.060;2022-10-31T02:10:06;16.70;74.80
19110;DHT22;9687;50.836;12.060;2022-10-31T02:12:34;16.60;74.50
19110;DHT22;9687;50.836;12.060;2022-10-31T02:15:04;16.50;74.50
19110;DHT22;9687;50.836;12.060;2022-10-31T02:17:33;16.50;74.80
19110;DHT22;9687;50.836;12.060;2022-10-31T02:20:09;16.40;75.00
19110;DHT22;9687;50.836;12.060;2022-10-31T02:23:08;16.40;75.00
19110;DHT22;9687;50.836;12.060;2022-10-31T02:25:51;16.40;75.10
19110;DHT22;9687;50.836;12.060;2022-10-31T02:28:43;16.40;75.10
19110;DHT22;9687;50.836;12.060;2022-10-31T02:31:26;16.40;74.40
19110;DHT22;9687;50.836;12.060;2022-10-31T02:34:01;16.40;75.00
19110;DHT22;9687;50.836;12.060;2022-10-31T02:36:39;16.30;75.00
19110;DHT22;9687;50.836;12.060;2022-10-31T02:39:12;16.30;75.20
19110;DHT22;9687;50.836;12.060;2022-10-31T02:41:48;16.20;75.40
19110;DHT22;9687;50.836;12.060;2022-10-31T02:44:22;16.20;75.70
19110;DHT22;9687;50.836;12.060;2022-10-31T02:46:57;16.10;75.80
19110;DHT22;9687;50.836;12.060;2022-10-31T02:49:30;16.10;76.20
19110;DHT22;9687;50.836;12.060;2022-10-31T02:51:59;16.10;76.30
19110;DHT22;9687;50.836;12.060;2022-10-31T02:54:28;16.20;75.70
19110;DHT22;9687;50.836;12.060;2022-10-31T02:57:00;16.20;76.40
19110;DHT22;9687;50.836;12.060;2022-10-31T02:59:33;16.20;76.40
19110;DHT22;9687;50.836;12.060;2022-10-31T03:02:12;16.20;76.50
19110;DHT22;9687;50.836;12.060;2022-10-31T03:04:55;16.10;76.30
19110;DHT22;9687;50.836;12.060;2022-10-31T03:07:33;16.10;76.30
19110;DHT22;9687;50.836;12.060;2022-10-31T03:10:06;16.10;76.30
19110;DHT22;9687;50.836;12.060;2022-10-31T03:12:40;16.10;76.30
19110;DHT22;9687;50.836;12.060;2022-10-31T03:15:18;16.10;76.80
19110;DHT22;9687;50.836;12.060;2022-10-31T03:17:54;16.10;77.00
19110;DHT22;9687;50.836;12.060;2022-10-31T03:20:26;16.10;77.10
19110;DHT22;9687;50.836;12.060;2022-10-31T03:22:56;16.10;77.10
19110;DHT22;9687;50.836;12.060;2022-10-31T03:25:24;16.00;76.90
19110;DHT22;9687;50.836;12.060;2022-10-31T04:29:32;15.70;77.80
19110;DHT22;9687;50.836;12.060;2022-10-31T04:32:00;15.70;77.70
19110;DHT22;9687;50.836;12.060;2022-10-31T04:34:28;15.70;77.10
19110;DHT22;9687;50.836;12.060;2022-10-31T04:36:55;15.60;77.60
19110;DHT22;9687;50.836;12.060;2022-10-31T04:39:22;15.60;77.50
19110;DHT22;9687;50.836;12.060;2022-10-31T04:41:50;15.60;77.70
19110;DHT22;9687;50.836;12.060;2022-10-31T04:44:17;15.50;77.00
19110;DHT22;9687;50.836;12.060;2022-10-31T04:46:46;15.50;77.70
19110;DHT22;9687;50.836;12.060;2022-10-31T04:49:14;15.50;77.70
19110;DHT22;9687;50.836;12.060;2022-10-31T04:51:41;15.50;77.60
19110;DHT22;9687;50.836;12.060;2022-10-31T04:54:09;15.50;77.80
19110;DHT22;9687;50.836;12.060;2022-10-31T04:56:36;15.40;77.80
19110;DHT22;9687;50.836;12.060;2022-10-31T04:59:04;15.40;77.90
19110;DHT22;9687;50.836;12.060;2022-10-31T05:01:31;15.40;78.00
19110;DHT22;9687;50.836;12.060;2022-10-31T05:04:00;15.40;78.10
19110;DHT22;9687;50.836;12.060;2022-10-31T05:06:28;15.30;78.00
19110;DHT22;9687;50.836;12.060;2022-10-31T05:08:55;15.30;77.90
19110;DHT22;9687;50.836;12.060;2022-10-31T05:11:23;15.20;77.00
19110;DHT22;9687;50.836;12.060;2022-10-31T05:13:50;15.20;77.60
19110;DHT22;9687;50.836;12.060;2022-10-31T05:16:18;15.10;77.50
19110;DHT22;9687;50.836;12.060;2022-10-31T05:18:46;15.10;77.50
19110;DHT22;9687;50.836;12.060;2022-10-31T05:21:15;15.10;77.40
19110;DHT22;9687;50.836;12.060;2022-10-31T05:23:43;15.00;77.40
19110;DHT22;9687;50.836;12.060;2022-10-31T05:26:11;14.90;78.60
19110;DHT22;9687;50.836;12.060;2022-10-31T08:30:40;19.30;72.90
19110;DHT22;9687;50.836;12.060;2022-10-31T08:33:11;19.40;73.00
19110;DHT22;9687;50.836;12.060;2022-10-31T08:35:39;19.50;72.80
19110;DHT22;9687;50.836;12.060;2022-10-31T08:38:08;19.60;72.30
19110;DHT22;9687;50.836;12.060;2022-10-31T08:40:37;19.70;72.00
19110;DHT22;9687;50.836;12.060;2022-10-31T08:43:06;19.70;72.10
19110;DHT22;9687;50.836;12.060;2022-10-31T08:45:36;19.80;72.40
19110;DHT22;9687;50.836;12.060;2022-10-31T08:48:08;19.90;72.20
19110;DHT22;9687;50.836;12.060;2022-10-31T08:50:36;20.00;72.30
19110;DHT22;9687;50.836;12.060;2022-10-31T08:53:06;20.20;72.40
19110;DHT22;9687;50.836;12.060;2022-10-31T08:55:35;20.40;72.30
19110;DHT22;9687;50.836;12.060;2022-10-31T08:58:04;20.50;71.80
19110;DHT22;9687;50.836;12.060;2022-10-31T09:00:34;20.70;71.80
19110;DHT22;9687;50.836;12.060;2022-10-31T09:03:04;21.00;71.80
19110;DHT22;9687;50.836;12.060;2022-10-31T09:05:34;21.20;71.50
19110;DHT22;9687;50.836;12.060;2022-10-31T09:08:05;21.40;71.00
19110;DHT22;9687;50.836;12.060;2022-10-31T09:10:35;21.50;70.60
19110;DHT22;9687;50.836;12.060;2022-10-31T09:13:07;21.70;70.10
19110;DHT22;9687;50.836;12.060;2022-10-31T09:15:36;21.80;69.70
19110;DHT22;9687;50.836;12.060;2022-10-31T09:18:04;22.00;69.70
19110;DHT22;9687;50.836;12.060;2022-10-31T09:20:34;22.10;69.30
19110;DHT22;9687;50.836;12.060;2022-10-31T09:23:04;22.30;68.70
19110;DHT22;9687;50.836;12.060;2022-10-31T09:25:35;22.40;69.50
19110;DHT22;9687;50.836;12.060;2022-10-31T09:28:05;22.60;68.00
19110;DHT22;9687;50.836;12.060;2022-10-31T11:31:36;25.90;59.80
19110;DHT22;9687;50.836;12.060;2022-10-31T11:34:15;25.80;59.40
19110;DHT22;9687;50.836;12.060;2022-10-31T11:36:46;25.70;59.30
19110;DHT22;9687;50.836;12.060;2022-10-31T11:39:19;25.70;59.30
19110;DHT22;9687;50.836;12.060;2022-10-31T11:41:49;25.70;59.50
19110;DHT22;9687;50.836;12.060;2022-10-31T11:44:20;25.60;59.50
19110;DHT22;9687;50.836;12.060;2022-10-31T11:46:56;25.50;59.30
19110;DHT22;9687;50.836;12.060;2022-10-31T11:49:29;25.40;59.60
19110;DHT22;9687;50.836;12.060;2022-10-31T11:51:59;25.30;60.00
19110;DHT22;9687;50.836;12.060;2022-10-31T11:54:32;25.20;60.20
19110;DHT22;9687;50.836;12.060;2022-10-31T11:57:02;25.10;60.40
19110;DHT22;9687;50.836;12.060;2022-10-31T11:59:31;25.00;60.50
19110;DHT22;9687;50.836;12.060;2022-10-31T12:02:01;25.00;60.70
19110;DHT22;9687;50.836;12.060;2022-10-31T12:04:33;24.90;60.80
19110;DHT22;9687;50.836;12.060;2022-10-31T12:07:03;24.90;60.80
19110;DHT22;9687;50.836;12.060;2022-10-31T12:09:34;24.90;60.90
19110;DHT22;9687;50.836;12.060;2022-10-31T12:12:20;24.90;61.00
19110;DHT22;9687;50.836;12.060;2022-10-31T12:15:01;25.00;61.00
19110;DHT22;9687;50.836;12.060;2022-10-31T12:17:41;25.00;61.00
19110;DHT22;9687;50.836;12.060;2022-10-31T12:20:22;24.90;61.10
19110;DHT22;9687;50.836;12.060;2022-10-31T12:23:00;24.90;61.30
19110;DHT22;9687;50.836;12.060;2022-10-31T12:25:38;24.80;61.10
19110;DHT22;9687;50.836;12.060;2022-10-31T12:28:31;24.80;61.00
19110;DHT22;9687;50.836;12.060;2022-10-31T12:31:12;24.80;61.10
19110;DHT22;9687;50.836;12.060;2022-10-31T12:34:17;24.70;61.40
19110;DHT22;9687;50.836;12.060;2022-10-31T12:36:59;24.60;62.00
19110;DHT22;9687;50.836;12.060;2022-10-31T12:39:38;24.50;61.90
19110;DHT22;9687;50.836;12.060;2022-10-31T12:42:20;24.40;62.40
19110;DHT22;9687;50.836;12.060;2022-10-31T12:45:28;24.40;62.70
19110;DHT22;9687;50.836;12.060;2022-10-31T12:48:20;24.30;63.70
19110;DHT22;9687;50.836;12.060;2022-10-31T12:51:10;24.20;62.40
19110;DHT22;9687;50.836;12.060;2022-10-31T12:53:50;24.10;62.30
19110;DHT22;9687;50.836;12.060;2022-10-31T12:56:32;24.00;62.50
19110;DHT22;9687;50.836;12.060;2022-10-31T12:59:09;23.90;62.90
19110;DHT22;9687;50.836;12.060;2022-10-31T13:01:46;23.80;63.20
19110;DHT22;9687;50.836;12.060;2022-10-31T13:04:18;23.70;63.40
19110;DHT22;9687;50.836;12.060;2022-10-31T13:06:56;23.60;63.70
19110;DHT22;9687;50.836;12.060;2022-10-31T13:09:30;23.50;63.60
19110;DHT22;9687;50.836;12.060;2022-10-31T13:12:08;23.50;63.80
19110;DHT22;9687;50.836;12.060;2022-10-31T13:14:40;23.40;63.90
19110;DHT22;9687;50.836;12.060;2022-10-31T13:17:16;23.30;64.10
19110;DHT22;9687;50.836;12.060;2022-10-31T13:19:49;23.20;64.40
19110;DHT22;9687;50.836;12.060;2022-10-31T13:22:22;23.10;64.60
19110;DHT22;9687;50.836;12.060;2022-10-31T13:24:56;23.10;65.20
19110;DHT22;9687;50.836;12.060;2022-10-31T13:27:30;23.10;65.50
19110;DHT22;9687;50.836;12.060;2022-10-31T13:30:13;23.00;65.40
19110;DHT22;9687;50.836;12.060;2022-10-31T13:32:46;23.00;64.90
19110;DHT22;9687;50.836;12.060;2022-10-31T13:35:21;22.90;65.60
19110;DHT22;9687;50.836;12.060;2022-10-31T13:40:44;22.90;66.10
19110;DHT22;9687;50.836;12.060;2022-10-31T13:43:22;22.80;66.20
19110;DHT22;9687;50.836;12.060;2022-10-31T13:45:53;22.80;66.70
19110;DHT22;9687;50.836;12.060;2022-10-31T13:48:39;22.80;67.20
19110;DHT22;9687;50.836;12.060;2022-10-31T13:51:10;22.70;67.60
19110;DHT22;9687;50.836;12.060;2022-10-31T13:53:43;22.70;67.90
19110;DHT22;9687;50.836;12.060;2022-10-31T13:56:17;22.70;68.20
19110;DHT22;9687;50.836;12.060;2022-10-31T13:59:01;22.70;68.60
19110;DHT22;9687;50.836;12.060;2022-10-31T14:01:30;22.60;68.80
19110;DHT22;9687;50.836;12.060;2022-10-31T14:04:03;22.60;69.00
19110;DHT22;9687;50.836;12.060;2022-10-31T14:06:37;22.60;69.30
19110;DHT22;9687;50.836;12.060;2022-10-31T14:09:26;22.50;69.40
19110;DHT22;9687;50.836;12.060;2022-10-31T14:11:55;22.50;69.70
19110;DHT22;9687;50.836;12.060;2022-10-31T14:14:30;22.50;69.80
19110;DHT22;9687;50.836;12.060;2022-10-31T14:17:01;22.50;70.00
19110;DHT22;9687;50.836;12.060;2022-10-31T14:19:30;22.50;70.30
19110;DHT22;9687;50.836;12.060;2022-10-31T14:21:57;22.50;70.60
19110;DHT22;9687;50.836;12.060;2022-10-31T14:24:34;22.40;70.80
19110;DHT22;9687;50.836;12.060;2022-10-31T14:29:46;22.40;71.50
19110;DHT22;9687;50.836;12.060;2022-10-31T14:32:20;22.30;71.50
19110;DHT22;9687;50.836;12.060;2022-10-31T14:34:53;22.30;71.50
19110;DHT22;9687;50.836;12.060;2022-10-31T14:37:52;22.20;71.40
19110;DHT22;9687;50.836;12.060;2022-10-31T14:40:35;22.20;71.80
19110;DHT22;9687;50.836;12.060;2022-10-31T14:46:16;22.10;72.10
19110;DHT22;9687;50.836;12.060;2022-10-31T14:49:02;22.10;72.20
19110;DHT22;9687;50.836;12.060;2022-10-31T14:51:36;22.10;72.50
19110;DHT22;9687;50.836;12.060;2022-10-31T14:54:05;22.00;72.70
19110;DHT22;9687;50.836;12.060;2022-10-31T14:56:37;22.00;72.90
19110;DHT22;9687;50.836;12.060;2022-10-31T14:59:08;22.00;73.10
19110;DHT22;9687;50.836;12.060;2022-10-31T15:01:38;22.00;73.30
19110;DHT22;9687;50.836;12.060;2022-10-31T15:04:11;21.90;73.60
19110;DHT22;9687;50.836;12.060;2022-10-31T15:06:43;21.90;74.00
19110;DHT22;9687;50.836;12.060;2022-10-31T15:09:22;21.80;74.30
19110;DHT22;9687;50.836;12.060;2022-10-31T15:11:51;21.80;74.60
19110;DHT22;9687;50.836;12.060;2022-10-31T15:14:25;21.80;74.80
19110;DHT22;9687;50.836;12.060;2022-10-31T15:16:53;21.70;74.90
19110;DHT22;9687;50.836;12.060;2022-10-31T15:19:24;21.70;75.20
19110;DHT22;9687;50.836;12.060;2022-10-31T15:21:53;21.70;75.40
19110;DHT22;9687;50.836;12.060;2022-10-31T15:24:24;21.60;75.60
19110;DHT22;9687;50.836;12.060;2022-10-31T15:26:55;21.50;75.60
19110;DHT22;9687;50.836;12.060;2022-10-31T15:29:26;21.50;76.00
19110;DHT22;9687;50.836;12.060;2022-10-31T15:31:58;21.50;76.30
19110;DHT22;9687;50.836;12.060;2022-10-31T15:34:32;21.40;76.30
19110;DHT22;9687;50.836;12.060;2022-10-31T15:37:03;21.40;76.70
19110;DHT22;9687;50.836;12.060;2022-10-31T15:39:34;21.40;76.70
19110;DHT22;9687;50.836;12.060;2022-10-31T15:42:04;21.30;76.70
19110;DHT22;9687;50.836;12.060;2022-10-31T15:44:41;21.30;76.90
19110;DHT22;9687;50.836;12.060;2022-10-31T17:26:38;20.00;81.90
19110;DHT22;9687;50.836;12.060;2022-10-31T17:29:06;20.00;81.90
19110;DHT22;9687;50.836;12.060;2022-10-31T17:31:35;20.00;82.20
19110;DHT22;9687;50.836;12.060;2022-10-31T17:34:04;20.00;82.30
19110;DHT22;9687;50.836;12.060;2022-10-31T17:36:35;19.90;82.30
19110;DHT22;9687;50.836;12.060;2022-10-31T17:39:03;19.90;82.30
19110;DHT22;9687;50.836;12.060;2022-10-31T17:41:34;19.90;82.30
19110;DHT22;9687;50.836;12.060;2022-10-31T17:44:03;19.90;82.30
19110;DHT22;9687;50.836;12.060;2022-10-31T17:46:31;19.90;82.40
19110;DHT22;9687;50.836;12.060;2022-10-31T17:48:59;19.90;82.50
19110;DHT22;9687;50.836;12.060;2022-10-31T17:51:26;19.90;82.70
19110;DHT22;9687;50.836;12.060;2022-10-31T17:53:56;19.80;82.70
19110;DHT22;9687;50.836;12.060;2022-10-31T17:56:24;19.80;82.90
19110;DHT22;9687;50.836;12.060;2022-10-31T17:58:51;19.80;83.10
19110;DHT22;9687;50.836;12.060;2022-10-31T18:01:22;19.80;83.20
19110;DHT22;9687;50.836;12.060;2022-10-31T18:03:49;19.80;82.90
19110;DHT22;9687;50.836;12.060;2022-10-31T18:06:17;19.80;82.80
19110;DHT22;9687;50.836;12.060;2022-10-31T18:08:45;19.80;82.70
19110;DHT22;9687;50.836;12.060;2022-10-31T18:11:20;19.70;82.50
19110;DHT22;9687;50.836;12.060;2022-10-31T18:13:52;19.70;82.60
19110;DHT22;9687;50.836;12.060;2022-10-31T18:16:22;19.70;82.90
19110;DHT22;9687;50.836;12.060;2022-10-31T18:18:50;19.70;83.00
19110;DHT22;9687;50.836;12.060;2022-10-31T18:21:23;19.60;82.90
19110;DHT22;9687;50.836;12.060;2022-10-31T18:23:55;19.60;82.80
19110;DHT22;9687;50.836;12.060;2022-10-31T19:28:40;18.80;84.40
19110;DHT22;9687;50.836;12.060;2022-10-31T19:31:11;18.70;84.40
19110;DHT22;9687;50.836;12.060;2022-10-31T19:33:51;18.70;84.70
19110;DHT22;9687;50.836;12.060;2022-10-31T19:36:22;18.60;84.70
19110;DHT22;9687;50.836;12.060;2022-10-31T19:38:52;18.60;85.30
19110;DHT22;9687;50.836;12.060;2022-10-31T19:41:25;18.60;85.50
19110;DHT22;9687;50.836;12.060;2022-10-31T19:43:57;18.60;85.50
19110;DHT22;9687;50.836;12.060;2022-10-31T19:46:27;18.60;85.20
19110;DHT22;9687;50.836;12.060;2022-10-31T19:48:55;18.50;84.90
19110;DHT22;9687;50.836;12.060;2022-10-31T19:51:26;18.50;85.00
19110;DHT22;9687;50.836;12.060;2022-10-31T19:53:56;18.40;85.40
19110;DHT22;9687;50.836;12.060;2022-10-31T19:56:27;18.40;85.40
19110;DHT22;9687;50.836;12.060;2022-10-31T19:58:56;18.30;85.40
19110;DHT22;9687;50.836;12.060;2022-10-31T20:01:31;18.30;85.30
19110;DHT22;9687;50.836;12.060;2022-10-31T20:04:02;18.30;85.40
19110;DHT22;9687;50.836;12.060;2022-10-31T20:06:32;18.20;85.30
19110;DHT22;9687;50.836;12.060;2022-10-31T20:09:06;18.20;85.50
19110;DHT22;9687;50.836;12.060;2022-10-31T20:11:44;18.20;85.60
19110;DHT22;9687;50.836;12.060;2022-10-31T20:14:17;18.10;85.00
19110;DHT22;9687;50.836;12.060;2022-10-31T20:16:46;18.10;85.70
19110;DHT22;9687;50.836;12.060;2022-10-31T20:19:19;18.00;85.60
19110;DHT22;9687;50.836;12.060;2022-10-31T20:21:48;18.00;86.20
19110;DHT22;9687;50.836;12.060;2022-10-31T20:24:18;18.00;86.00
19110;DHT22;9687;50.836;12.060;2022-10-31T20:26:45;17.90;85.70
